Time;durP1;ratioP1;P1;durP2;ratioP2;P2;SDS_P1;SDS_P2;PMS_P1;PMS_P2;Temp;Humidity;BMP_temperature;BMP_pressure;BME280_temperature;BME280_humidity;BME280_pressure;Samples;Min_cycle;Max_cycle;Signal;HPM_P1;HPM_P2
2021/08/30 00:00:58;;;;;;;16.83;11.48;;;16.10;99.90;;;;;;4906137;29;20211;-95
2021/08/30 00:03:24;;;;;;;12.10;10.80;;;16.00;99.90;;;;;;4905944;29;20574;-95
2021/08/30 00:05:50;;;;;;;16.20;10.95;;;16.00;99.90;;;;;;4904699;29;20187;-95
2021/08/30 00:08:17;;;;;;;13.85;10.90;;;16.00;99.90;;;;;;4906199;29;20191;-95
2021/08/30 00:10:43;;;;;;;15.18;11.55;;;16.00;99.90;;;;;;4903570;29;20207;-96
2021/08/30 00:13:08;;;;;;;15.35;10.45;;;16.00;99.90;;;;;;4905262;29;20243;-95
2021/08/30 00:15:38;;;;;;;15.10;11.10;;;16.00;99.90;;;;;;4902501;29;20195;-96
2021/08/30 00:18:08;;;;;;;12.35;10.95;;;16.00;99.90;;;;;;4904359;29;20238;-96
2021/08/30 00:20:34;;;;;;;13.88;10.88;;;16.00;99.90;;;;;;4919656;29;20230;-96
2021/08/30 00:23:03;;;;;;;13.13;11.65;;;16.00;99.90;;;;;;4902772;29;20186;-95
2021/08/30 00:25:32;;;;;;;15.18;10.70;;;16.00;99.90;;;;;;4904118;29;20180;-95
2021/08/30 00:27:58;;;;;;;12.15;10.23;;;16.00;99.90;;;;;;4903683;29;20184;-95
2021/08/30 00:30:27;;;;;;;12.82;11.23;;;16.00;99.90;;;;;;4903389;29;20264;-95
2021/08/30 00:33:02;;;;;;;16.95;10.73;;;16.00;99.90;;;;;;4904318;29;20175;-94
2021/08/30 00:35:28;;;;;;;14.40;10.73;;;16.00;99.90;;;;;;4903710;29;20188;-96
2021/08/30 00:37:54;;;;;;;18.13;11.13;;;16.00;99.90;;;;;;4903921;29;20214;-95
2021/08/30 00:40:22;;;;;;;18.05;11.77;;;15.90;99.90;;;;;;4905828;29;20191;-95
2021/08/30 00:42:50;;;;;;;15.52;11.10;;;16.00;99.90;;;;;;4904643;29;20215;-95
2021/08/30 00:45:16;;;;;;;13.48;11.23;;;16.00;99.90;;;;;;4905894;29;20184;-95
2021/08/30 00:47:44;;;;;;;16.20;11.00;;;16.00;99.90;;;;;;4904280;29;20191;-96
2021/08/30 00:50:12;;;;;;;15.43;11.43;;;16.00;99.90;;;;;;4904475;29;20323;-95
2021/08/30 00:52:44;;;;;;;14.25;10.68;;;16.00;99.90;;;;;;4904942;29;20197;-96
2021/08/30 00:55:14;;;;;;;14.23;11.23;;;16.00;99.90;;;;;;4903163;29;20183;-96
2021/08/30 00:57:42;;;;;;;15.30;11.50;;;15.90;99.90;;;;;;4902107;29;20761;-95
2021/08/30 01:00:11;;;;;;;14.43;11.43;;;15.90;99.90;;;;;;4899975;29;20184;-95
2021/08/30 01:02:38;;;;;;;14.60;10.73;;;15.90;99.90;;;;;;4900956;29;20210;-96
2021/08/30 01:05:05;;;;;;;13.07;10.55;;;15.90;99.90;;;;;;4904028;29;20190;-96
2021/08/30 01:07:48;;;;;;;15.02;10.60;;;16.00;99.90;;;;;;4906063;29;20178;-94
2021/08/30 01:10:45;;;;;;;17.05;11.70;;;16.00;99.90;;;;;;4908781;29;20210;-95
2021/08/30 01:13:58;;;;;;;14.13;10.93;;;16.00;99.90;;;;;;5242796;23;20690;-96
2021/08/30 01:16:34;;;;;;;13.27;10.95;;;16.00;99.90;;;;;;4942109;29;20253;-96
2021/08/30 01:19:05;;;;;;;14.82;10.52;;;16.00;99.90;;;;;;4942037;29;20198;-96
2021/08/30 01:21:51;;;;;;;16.17;10.98;;;16.00;99.90;;;;;;4921438;29;20775;-95
2021/08/30 01:24:26;;;;;;;15.77;10.07;;;16.00;99.90;;;;;;4922410;29;20223;-96
2021/08/30 01:27:19;;;;;;;13.10;11.05;;;16.00;99.90;;;;;;4935553;29;20201;-96
2021/08/30 01:30:17;;;;;;;12.70;10.40;;;16.00;99.90;;;;;;4939334;29;20678;-96
2021/08/30 01:32:48;;;;;;;13.20;10.77;;;16.00;99.90;;;;;;4938429;29;20183;-96
2021/08/30 01:35:29;;;;;;;12.85;10.10;;;16.00;99.90;;;;;;4921778;29;20246;-96
2021/08/30 01:38:03;;;;;;;12.82;10.23;;;16.00;99.90;;;;;;4938604;29;20210;-96
2021/08/30 01:40:35;;;;;;;13.13;10.35;;;16.00;99.90;;;;;;4922070;29;20198;-96
2021/08/30 01:43:03;;;;;;;14.98;10.80;;;16.00;99.90;;;;;;4938640;29;20665;-96
2021/08/30 01:45:47;;;;;;;14.02;10.32;;;16.00;99.90;;;;;;4939055;29;20239;-96
2021/08/30 01:48:17;;;;;;;11.88;9.80;;;16.00;99.90;;;;;;4936313;29;20182;-95
2021/08/30 01:50:48;;;;;;;12.63;10.45;;;16.00;99.90;;;;;;4936686;29;20221;-95
2021/08/30 01:53:19;;;;;;;12.13;9.85;;;16.00;99.90;;;;;;4936963;29;20273;-96
2021/08/30 01:55:51;;;;;;;14.80;10.27;;;15.90;99.90;;;;;;4936744;29;20286;-96
2021/08/30 02:01:13;;;;;;;13.70;10.88;;;15.90;99.90;;;;;;4937478;29;20266;-96
2021/08/30 02:03:42;;;;;;;12.00;10.30;;;15.90;99.90;;;;;;4921018;29;20213;-96
2021/08/30 02:06:10;;;;;;;11.18;9.80;;;15.90;99.90;;;;;;4935800;29;20186;-96
2021/08/30 02:08:36;;;;;;;15.10;10.60;;;15.90;99.90;;;;;;4934616;29;20619;-96
2021/08/30 02:11:10;;;;;;;20.73;10.52;;;15.90;99.90;;;;;;4936535;29;20211;-96
2021/08/30 02:13:47;;;;;;;18.13;10.70;;;15.90;99.90;;;;;;4932646;29;20219;-96
2021/08/30 02:16:26;;;;;;;15.02;10.70;;;15.90;99.90;;;;;;4936971;29;20206;-96
2021/08/30 02:19:22;;;;;;;12.48;10.40;;;16.00;99.90;;;;;;4920682;29;20594;-96
2021/08/30 02:22:07;;;;;;;15.35;10.23;;;15.90;99.90;;;;;;4915348;29;20207;-96
2021/08/30 02:24:56;;;;;;;12.95;10.27;;;15.90;99.90;;;;;;4937038;29;20187;-96
2021/08/30 02:27:46;;;;;;;16.38;10.18;;;15.90;99.90;;;;;;4920884;29;20250;-96
2021/08/30 02:33:12;;;;;;;13.50;9.77;;;15.90;99.90;;;;;;4965088;23;20246;-96
2021/08/30 02:35:42;;;;;;;13.13;10.00;;;15.90;99.90;;;;;;4900891;29;20191;-96
2021/08/30 02:38:17;;;;;;;16.75;10.38;;;15.90;99.90;;;;;;4900393;29;20207;-96
2021/08/30 02:40:48;;;;;;;12.32;9.35;;;15.90;99.90;;;;;;4896718;29;20211;-96
2021/08/30 02:43:22;;;;;;;10.32;8.95;;;15.90;99.90;;;;;;4896267;29;20230;-95
2021/08/30 02:45:49;;;;;;;10.57;9.02;;;15.90;99.90;;;;;;4896204;29;20191;-96
2021/08/30 02:48:17;;;;;;;11.85;9.20;;;15.90;99.90;;;;;;4894821;29;20549;-96
2021/08/30 02:50:47;;;;;;;14.40;9.02;;;15.90;99.90;;;;;;4896018;29;20252;-95
2021/08/30 02:53:13;;;;;;;11.18;8.95;;;15.90;99.90;;;;;;4895523;29;20595;-96
2021/08/30 02:55:48;;;;;;;9.65;8.63;;;15.90;99.90;;;;;;4896797;29;20196;-95
2021/08/30 02:58:15;;;;;;;11.05;8.30;;;15.90;99.90;;;;;;4894780;29;20230;-95
2021/08/30 03:00:41;;;;;;;12.18;8.45;;;15.90;99.90;;;;;;4894833;29;20271;-95
2021/08/30 03:03:22;;;;;;;11.80;9.35;;;15.90;99.90;;;;;;4894483;29;20184;-96
2021/08/30 03:05:55;;;;;;;16.13;8.85;;;15.90;99.90;;;;;;4895648;29;20252;-96
2021/08/30 03:08:23;;;;;;;13.70;9.70;;;15.90;99.90;;;;;;4894113;29;20225;-95
2021/08/30 03:10:56;;;;;;;9.60;8.57;;;15.80;99.90;;;;;;4895119;29;20216;-95
2021/08/30 03:13:24;;;;;;;11.80;9.07;;;15.90;99.90;;;;;;4894313;29;20207;-96
2021/08/30 03:15:54;;;;;;;11.20;8.73;;;15.80;99.90;;;;;;4893238;29;20226;-96
2021/08/30 03:18:21;;;;;;;12.13;9.25;;;15.80;99.90;;;;;;4893856;29;20215;-95
2021/08/30 03:20:53;;;;;;;11.10;8.63;;;15.80;99.90;;;;;;4894481;29;20212;-95
2021/08/30 03:23:21;;;;;;;12.52;9.35;;;15.70;99.90;;;;;;4893620;29;20188;-95
2021/08/30 03:25:52;;;;;;;10.38;8.63;;;15.70;99.90;;;;;;4894363;29;20208;-96
2021/08/30 03:28:22;;;;;;;15.55;9.27;;;15.80;99.90;;;;;;4895050;29;20260;-96
2021/08/30 03:30:54;;;;;;;10.65;8.05;;;15.70;99.90;;;;;;4893555;29;20236;-96
2021/08/30 03:33:24;;;;;;;9.73;8.48;;;15.70;99.90;;;;;;4897357;29;20231;-95
2021/08/30 03:35:54;;;;;;;13.93;9.30;;;15.70;99.90;;;;;;4894119;29;20188;-95
2021/08/30 03:38:25;;;;;;;12.75;8.68;;;15.70;99.90;;;;;;4893876;29;20216;-95
2021/08/30 03:40:52;;;;;;;11.18;8.43;;;15.70;99.90;;;;;;4893970;29;20212;-94
2021/08/30 03:43:20;;;;;;;11.15;8.07;;;15.70;99.90;;;;;;4894527;29;20219;-95
2021/08/30 03:45:46;;;;;;;13.95;8.88;;;15.70;99.90;;;;;;4893824;29;20236;-95
2021/08/30 03:48:14;;;;;;;13.48;8.43;;;15.60;99.90;;;;;;4894054;29;20221;-95
2021/08/30 03:50:42;;;;;;;11.95;8.60;;;15.60;99.90;;;;;;4894082;29;20303;-96
2021/08/30 03:53:09;;;;;;;11.88;8.32;;;15.70;99.90;;;;;;4895939;29;20187;-96
2021/08/30 03:55:37;;;;;;;10.77;8.80;;;15.70;99.90;;;;;;4896873;29;20180;-96
2021/08/30 03:58:05;;;;;;;11.32;8.77;;;15.70;99.90;;;;;;4895069;29;20207;-95
2021/08/30 04:00:41;;;;;;;14.88;8.98;;;15.70;99.90;;;;;;4895700;29;20212;-96
2021/08/30 04:03:13;;;;;;;12.05;8.32;;;15.70;99.90;;;;;;4895034;29;20187;-96
2021/08/30 04:05:49;;;;;;;12.60;9.50;;;15.60;99.90;;;;;;4894508;29;20172;-95
2021/08/30 04:08:20;;;;;;;10.98;8.93;;;15.60;99.90;;;;;;4894087;29;20210;-94
2021/08/30 04:10:48;;;;;;;10.88;8.48;;;15.60;99.90;;;;;;4895736;29;20212;-96
2021/08/30 04:13:19;;;;;;;10.68;8.85;;;15.60;99.90;;;;;;4895419;29;20220;-96
2021/08/30 04:15:48;;;;;;;13.82;8.57;;;15.60;99.90;;;;;;4894680;29;20203;-95
2021/08/30 04:18:15;;;;;;;10.02;8.60;;;15.60;99.90;;;;;;4895644;29;20204;-96
2021/08/30 04:20:47;;;;;;;9.88;8.50;;;15.60;99.90;;;;;;4895659;29;20208;-96
2021/08/30 04:23:15;;;;;;;13.07;8.63;;;15.60;99.90;;;;;;4895187;29;20179;-96
2021/08/30 04:25:41;;;;;;;11.20;8.50;;;15.50;99.90;;;;;;4895750;29;20207;-96
2021/08/30 04:28:12;;;;;;;11.07;8.38;;;15.50;99.90;;;;;;4895494;29;20211;-96
2021/08/30 04:30:39;;;;;;;9.65;8.65;;;15.60;99.90;;;;;;4894756;29;20212;-95
2021/08/30 04:33:12;;;;;;;11.25;9.25;;;15.60;99.90;;;;;;4892085;29;20236;-96
2021/08/30 04:35:43;;;;;;;13.05;8.60;;;15.50;99.90;;;;;;4877207;29;20714;-96
2021/08/30 04:38:12;;;;;;;10.48;8.38;;;15.50;99.90;;;;;;4891993;29;20223;-96
2021/08/30 04:40:38;;;;;;;10.43;8.32;;;15.50;99.90;;;;;;4890741;29;20205;-96
2021/08/30 04:43:04;;;;;;;11.18;8.60;;;15.50;99.90;;;;;;4891181;29;20191;-96
2021/08/30 04:45:33;;;;;;;14.75;9.63;;;15.50;99.90;;;;;;4891626;29;20227;-96
2021/08/30 04:48:00;;;;;;;11.82;9.10;;;15.60;99.90;;;;;;4891287;29;20261;-96
2021/08/30 04:50:26;;;;;;;11.13;8.82;;;15.60;99.90;;;;;;4891762;29;20191;-96
2021/08/30 04:52:54;;;;;;;10.05;8.27;;;15.60;99.90;;;;;;4891688;29;20192;-96
2021/08/30 04:55:21;;;;;;;11.70;9.18;;;15.60;99.90;;;;;;4890848;29;20244;-95
2021/08/30 04:57:49;;;;;;;14.18;8.75;;;15.60;99.90;;;;;;4890697;29;20223;-96
2021/08/30 05:00:16;;;;;;;12.40;9.02;;;15.60;99.90;;;;;;4889941;29;20191;-95
2021/08/30 05:02:42;;;;;;;13.90;9.45;;;15.70;99.90;;;;;;4888070;29;20280;-95
2021/08/30 05:05:10;;;;;;;13.25;9.02;;;15.60;99.90;;;;;;4889671;29;20184;-96
2021/08/30 05:07:40;;;;;;;11.00;8.65;;;15.60;99.90;;;;;;4888484;29;20189;-96
2021/08/30 05:10:13;;;;;;;10.80;9.35;;;15.60;99.90;;;;;;4890122;29;20233;-96
2021/08/30 05:12:39;;;;;;;11.77;9.20;;;15.70;99.90;;;;;;4892075;29;20185;-96
2021/08/30 05:15:07;;;;;;;13.48;9.02;;;15.70;99.90;;;;;;4890549;29;20189;-96
2021/08/30 05:17:34;;;;;;;12.32;9.27;;;15.60;99.90;;;;;;4890942;29;20216;-96
2021/08/30 05:20:04;;;;;;;11.88;9.25;;;15.60;99.90;;;;;;4892285;29;20188;-96
2021/08/30 05:22:32;;;;;;;10.45;9.35;;;15.60;99.90;;;;;;4891672;29;20219;-96
2021/08/30 05:25:02;;;;;;;11.75;9.50;;;15.60;99.90;;;;;;4891191;29;20252;-95
2021/08/30 05:27:57;;;;;;;12.15;8.77;;;15.60;99.90;;;;;;4891453;29;20197;-96
2021/08/30 05:30:23;;;;;;;13.70;9.05;;;15.60;99.90;;;;;;4892669;29;20181;-96
2021/08/30 05:32:56;;;;;;;12.23;10.10;;;15.60;99.90;;;;;;4889887;29;20263;-96
2021/08/30 05:35:24;;;;;;;12.32;9.48;;;15.60;99.90;;;;;;4891010;29;20208;-96
2021/08/30 05:37:57;;;;;;;10.68;8.43;;;15.60;99.90;;;;;;4891669;29;20219;-96
2021/08/30 05:40:36;;;;;;;11.07;9.32;;;15.70;99.90;;;;;;4889836;29;20203;-96
2021/08/30 05:43:06;;;;;;;12.32;8.77;;;15.70;99.90;;;;;;4890240;29;20187;-95
2021/08/30 05:45:35;;;;;;;11.38;9.23;;;15.70;99.90;;;;;;4889962;29;20217;-96
2021/08/30 05:48:12;;;;;;;13.32;8.88;;;15.70;99.90;;;;;;4875684;29;20177;-94
2021/08/30 05:50:49;;;;;;;12.90;9.57;;;15.70;99.90;;;;;;4890811;29;20205;-96
2021/08/30 05:53:16;;;;;;;11.77;9.65;;;15.70;99.90;;;;;;4891397;29;20219;-95
2021/08/30 05:55:44;;;;;;;10.65;8.95;;;15.80;99.90;;;;;;4894692;29;20189;-95
2021/08/30 05:58:16;;;;;;;11.43;8.63;;;15.70;99.90;;;;;;4894504;29;20243;-96
2021/08/30 06:00:45;;;;;;;10.27;8.90;;;15.80;99.90;;;;;;4894254;29;20699;-96
2021/08/30 06:03:18;;;;;;;11.38;9.95;;;15.70;99.90;;;;;;4893734;29;20181;-95
2021/08/30 06:05:48;;;;;;;11.65;8.63;;;15.80;99.90;;;;;;4878685;29;20574;-95
2021/08/30 06:08:19;;;;;;;11.20;8.80;;;15.80;99.90;;;;;;4894923;29;20200;-96
2021/08/30 06:10:56;;;;;;;13.88;8.98;;;15.90;99.90;;;;;;4893823;29;20209;-95
2021/08/30 06:13:42;;;;;;;12.57;9.10;;;15.90;99.90;;;;;;4894490;29;20176;-95
2021/08/30 06:16:16;;;;;;;10.15;8.63;;;15.90;99.90;;;;;;4879417;29;20200;-96
2021/08/30 06:18:56;;;;;;;11.75;8.98;;;15.90;99.90;;;;;;4894262;29;20272;-96
2021/08/30 06:21:38;;;;;;;10.88;8.60;;;16.00;99.90;;;;;;4892993;29;20663;-96
2021/08/30 06:24:07;;;;;;;12.32;8.88;;;15.90;99.90;;;;;;4892589;29;20193;-95
2021/08/30 06:26:41;;;;;;;11.18;9.45;;;16.00;99.90;;;;;;4892763;29;20214;-96
2021/08/30 06:29:33;;;;;;;13.77;8.85;;;16.00;99.90;;;;;;4880579;29;20189;-95
2021/08/30 06:35:12;;;;;;;11.60;9.05;;;16.00;99.90;;;;;;4883892;29;20199;-96
2021/08/30 06:38:11;;;;;;;16.08;8.85;;;16.00;99.90;;;;;;4894896;29;20212;-96
2021/08/30 06:40:48;;;;;;;12.90;9.00;;;15.90;99.90;;;;;;4895151;29;20221;-95
2021/08/30 06:43:20;;;;;;;12.77;9.70;;;16.00;99.90;;;;;;4894799;29;20172;-96
2021/08/30 06:46:00;;;;;;;14.30;8.55;;;16.00;99.90;;;;;;4894787;29;20271;-96
2021/08/30 06:48:27;;;;;;;12.80;9.07;;;16.00;99.90;;;;;;4893183;29;20181;-96
2021/08/30 06:50:55;;;;;;;9.90;8.50;;;16.00;99.90;;;;;;4893152;29;20223;-95
2021/08/30 06:53:24;;;;;;;11.27;8.90;;;16.00;99.90;;;;;;4890025;29;20192;-95
2021/08/30 06:56:00;;;;;;;14.43;8.85;;;15.90;99.90;;;;;;4891306;29;20185;-96
2021/08/30 06:58:59;;;;;;;9.85;8.38;;;16.00;99.90;;;;;;4888832;29;20199;-96
2021/08/30 07:01:30;;;;;;;11.48;9.10;;;16.10;99.90;;;;;;4888701;29;20858;-96
2021/08/30 07:04:00;;;;;;;12.52;7.93;;;16.10;99.90;;;;;;4889994;29;20209;-96
2021/08/30 07:06:26;;;;;;;11.77;7.75;;;16.10;99.90;;;;;;4892121;29;20189;-95
2021/08/30 07:08:52;;;;;;;9.30;8.20;;;16.10;99.90;;;;;;4881584;29;20257;-94
2021/08/30 07:11:21;;;;;;;11.63;8.55;;;16.20;99.90;;;;;;4880443;29;20217;-95
2021/08/30 07:13:59;;;;;;;14.43;8.40;;;16.20;99.90;;;;;;4891444;29;20212;-95
2021/08/30 07:16:44;;;;;;;9.27;8.18;;;16.30;99.90;;;;;;4894506;29;20200;-96
2021/08/30 07:19:25;;;;;;;11.02;8.45;;;16.30;99.90;;;;;;4895812;29;20256;-96
2021/08/30 07:22:43;;;;;;;8.65;7.47;;;16.30;99.90;;;;;;4895041;29;20268;-95
2021/08/30 07:25:19;;;;;;;9.60;8.43;;;16.40;99.90;;;;;;4895407;29;20169;-96
2021/08/30 07:28:17;;;;;;;;;;;;;;;;;;;;;
2021/08/30 07:31:20;;;;;;;11.90;7.60;;;16.50;99.90;;;;;;4880010;29;20232;-95
2021/08/30 07:34:18;;;;;;;11.00;8.05;;;16.50;99.90;;;;;;4884565;29;20290;-96
2021/08/30 07:37:27;;;;;;;17.33;7.82;;;16.70;99.90;;;;;;4897238;29;20208;-96
2021/08/30 07:40:22;;;;;;;12.80;7.40;;;16.70;99.90;;;;;;4897011;29;20196;-96
2021/08/30 07:43:09;;;;;;;9.77;6.88;;;16.80;99.90;;;;;;4896076;29;20191;-96
2021/08/30 07:45:55;;;;;;;9.50;6.97;;;16.80;99.90;;;;;;4896816;29;20642;-96
2021/08/30 07:48:23;;;;;;;9.10;7.00;;;16.80;99.90;;;;;;4896153;29;20183;-96
2021/08/30 07:50:52;;;;;;;7.78;6.95;;;16.90;99.90;;;;;;4895079;29;20222;-96
2021/08/30 07:53:26;;;;;;;8.88;6.72;;;17.00;99.90;;;;;;4895574;29;20220;-96
2021/08/30 07:56:03;;;;;;;8.02;6.70;;;17.00;99.90;;;;;;4894540;29;20196;-96
2021/08/30 07:58:43;;;;;;;8.95;6.68;;;17.10;99.90;;;;;;4895068;29;20222;-96
2021/08/30 08:01:26;;;;;;;8.73;6.93;;;17.10;99.90;;;;;;4895700;29;20211;-96
2021/08/30 08:04:30;;;;;;;6.85;6.15;;;17.10;99.90;;;;;;4898362;29;20248;-96
2021/08/30 08:07:18;;;;;;;8.35;6.15;;;17.10;99.90;;;;;;4898771;29;20183;-96
2021/08/30 08:09:46;;;;;;;7.50;6.25;;;17.20;99.90;;;;;;4893707;29;20188;-96
2021/08/30 08:12:16;;;;;;;10.77;6.55;;;17.30;99.90;;;;;;4895352;29;20196;-95
2021/08/30 08:14:52;;;;;;;8.18;6.28;;;17.30;99.90;;;;;;4895118;29;20187;-95
2021/08/30 08:17:49;;;;;;;7.53;5.70;;;17.20;99.90;;;;;;4894027;29;20207;-96
2021/08/30 08:20:30;;;;;;;;;;;;;;;;;;;;;
2021/08/30 08:23:37;;;;;;;7.40;5.78;;;17.20;99.90;;;;;;4895386;29;20212;-96
2021/08/30 08:26:24;;;;;;;8.90;5.90;;;17.20;99.90;;;;;;4896373;29;20205;-95
2021/08/30 08:29:04;;;;;;;7.40;5.38;;;17.20;99.90;;;;;;4896429;29;20182;-96
2021/08/30 08:31:39;;;;;;;7.63;5.43;;;17.30;99.90;;;;;;4894560;29;20211;-96
2021/08/30 08:34:07;;;;;;;7.40;5.80;;;17.30;99.90;;;;;;4892938;29;20220;-96
2021/08/30 08:36:40;;;;;;;8.57;5.55;;;17.40;99.90;;;;;;4897024;29;20638;-96
2021/08/30 08:39:24;;;;;;;6.20;5.57;;;17.50;99.90;;;;;;4894372;29;20188;-95
2021/08/30 08:41:52;;;;;;;6.68;5.30;;;17.50;99.90;;;;;;4889790;29;20207;-96
2021/08/30 08:44:38;;;;;;;7.57;5.28;;;17.60;99.90;;;;;;4893023;29;20187;-96
2021/08/30 08:50:34;;;;;;;5.78;5.00;;;17.60;99.90;;;;;;4894993;29;20191;-96
2021/08/30 08:53:08;;;;;;;6.10;5.22;;;17.60;99.90;;;;;;4894042;29;20198;-96
2021/08/30 08:55:46;;;;;;;7.05;4.93;;;17.60;99.90;;;;;;4892778;29;20188;-96
2021/08/30 09:01:43;;;;;;;6.28;4.80;;;17.40;99.90;;;;;;4898871;29;20633;-96
2021/08/30 09:04:11;;;;;;;7.97;4.95;;;17.30;99.90;;;;;;4892768;29;20180;-95
2021/08/30 09:06:44;;;;;;;5.60;4.45;;;17.20;99.90;;;;;;4890676;29;20188;-96
2021/08/30 09:09:15;;;;;;;6.57;4.82;;;17.20;99.90;;;;;;4891293;29;20191;-96
2021/08/30 09:11:44;;;;;;;5.22;4.72;;;17.20;99.90;;;;;;4892199;29;20223;-96
2021/08/30 09:14:22;;;;;;;5.88;4.20;;;17.30;99.90;;;;;;4892781;29;20192;-96
2021/08/30 09:17:17;;;;;;;6.88;4.65;;;17.40;99.90;;;;;;4891686;29;20643;-96
2021/08/30 09:19:45;;;;;;;5.28;4.47;;;17.50;99.90;;;;;;4891319;29;20671;-95
2021/08/30 09:22:16;;;;;;;7.55;4.72;;;17.50;99.90;;;;;;4891437;29;20237;-96
2021/08/30 09:24:50;;;;;;;4.50;4.10;;;17.60;99.90;;;;;;4892845;29;20213;-95
2021/08/30 09:27:56;;;;;;;5.95;4.05;;;17.60;99.90;;;;;;4891714;29;20183;-95
2021/08/30 09:30:38;;;;;;;6.03;4.03;;;17.70;99.90;;;;;;4895813;29;20196;-96
2021/08/30 09:33:05;;;;;;;5.28;4.13;;;17.70;99.90;;;;;;4891121;29;20248;-96
2021/08/30 09:35:34;;;;;;;8.02;3.92;;;17.60;99.90;;;;;;4892444;29;20212;-96
2021/08/30 09:38:00;;;;;;;6.32;3.78;;;17.60;99.90;;;;;;4893199;29;20213;-96
2021/08/30 09:40:28;;;;;;;4.47;3.78;;;17.60;99.90;;;;;;4892721;29;20185;-96
2021/08/30 09:42:57;;;;;;;4.97;3.70;;;17.60;99.90;;;;;;4892939;29;20216;-94
2021/08/30 09:45:29;;;;;;;3.78;3.40;;;17.70;99.90;;;;;;4892162;29;20189;-96
2021/08/30 09:48:14;;;;;;;7.00;4.15;;;17.70;99.90;;;;;;4896079;29;20193;-96
2021/08/30 12:37:30;;;;;;;5.50;4.57;;;17.00;99.90;;;;;;5997198;23;20206;31
2021/08/30 12:59:18;;;;;;;5.78;5.03;;;17.20;99.90;;;;;;4858461;29;20239;-96
2021/08/30 13:05:04;;;;;;;7.85;5.65;;;17.20;99.90;;;;;;4787790;30;20196;-96
2021/08/30 13:07:31;;;;;;;7.00;5.65;;;17.30;99.90;;;;;;4762096;29;20577;-96
2021/08/30 13:09:57;;;;;;;7.85;5.28;;;17.40;99.90;;;;;;4844435;29;20197;-96
2021/08/30 13:12:43;;;;;;;9.00;5.45;;;17.50;99.90;;;;;;4846217;29;20213;-96
2021/08/30 13:15:19;;;;;;;7.18;4.65;;;17.60;99.90;;;;;;4885601;29;20200;-96
2021/08/30 13:17:47;;;;;;;8.32;4.85;;;17.80;99.90;;;;;;4887374;29;20242;-95
2021/08/30 13:20:14;;;;;;;5.68;4.90;;;17.90;99.90;;;;;;4885595;29;20192;-94
2021/08/30 13:22:45;;;;;;;6.22;4.82;;;18.00;99.90;;;;;;4894146;29;20184;-96
2021/08/30 13:25:25;;;;;;;6.10;4.40;;;18.00;99.90;;;;;;4896864;29;20703;-96
2021/08/30 13:28:09;;;;;;;4.85;4.15;;;18.10;99.90;;;;;;4898529;29;20178;-96
2021/08/30 13:30:37;;;;;;;5.15;4.47;;;18.00;99.90;;;;;;4895986;29;20218;-95
2021/08/30 13:33:07;;;;;;;7.88;4.10;;;18.10;99.90;;;;;;4895786;29;20196;-95
2021/08/30 13:35:39;;;;;;;5.43;4.40;;;18.10;99.90;;;;;;4894836;29;20622;-96
2021/08/30 13:38:13;;;;;;;5.57;4.30;;;18.10;99.90;;;;;;4896705;29;20238;-96
2021/08/30 13:40:49;;;;;;;6.28;4.30;;;18.20;99.90;;;;;;4895825;29;20211;-96
2021/08/30 13:43:16;;;;;;;6.88;4.00;;;18.30;99.90;;;;;;4895604;29;20211;-95
2021/08/30 13:45:53;;;;;;;5.97;4.07;;;18.30;99.90;;;;;;4895465;29;20195;-95
2021/08/30 13:48:23;;;;;;;6.85;4.45;;;18.30;99.90;;;;;;4895847;29;20195;-95
2021/08/30 13:50:52;;;;;;;6.28;4.38;;;18.30;99.90;;;;;;4895633;29;20293;-94
2021/08/30 13:53:44;;;;;;;5.55;4.28;;;18.30;99.90;;;;;;4894601;29;20192;-96
2021/08/30 13:56:11;;;;;;;7.97;4.72;;;18.30;99.90;;;;;;4895188;29;20205;-96
2021/08/30 13:58:44;;;;;;;5.05;4.40;;;18.30;99.90;;;;;;4894978;29;20231;-96
2021/08/30 14:01:14;;;;;;;4.93;4.38;;;18.40;99.90;;;;;;4896496;29;20204;-96
2021/08/30 14:03:46;;;;;;;4.80;4.28;;;18.40;99.90;;;;;;4880532;29;20657;-96
2021/08/30 14:06:14;;;;;;;6.15;4.60;;;18.50;99.90;;;;;;4896251;29;20224;-95
2021/08/30 14:08:47;;;;;;;5.45;4.22;;;18.50;99.90;;;;;;4895725;29;20192;-96
2021/08/30 14:11:18;;;;;;;7.10;4.68;;;18.60;99.90;;;;;;4895187;29;20674;-96
2021/08/30 14:14:01;;;;;;;6.80;4.28;;;18.70;99.90;;;;;;4896717;29;20232;-96
2021/08/30 14:16:46;;;;;;;5.45;4.18;;;18.70;99.90;;;;;;4896618;29;20192;-96
2021/08/30 14:19:17;;;;;;;5.85;4.45;;;18.90;99.90;;;;;;4898002;29;20204;-96
2021/08/30 14:21:49;;;;;;;4.72;3.97;;;18.90;99.90;;;;;;4898731;29;20358;-96
2021/08/30 14:24:18;;;;;;;7.85;4.28;;;18.90;99.90;;;;;;4898444;29;20176;-96
2021/08/30 14:26:45;;;;;;;6.55;4.30;;;19.00;99.90;;;;;;4899004;29;20192;-96
2021/08/30 14:29:28;;;;;;;5.45;4.25;;;19.10;99.90;;;;;;4898865;29;20180;-95
2021/08/30 14:32:10;;;;;;;6.47;4.30;;;19.20;99.90;;;;;;4898977;29;20211;-96
2021/08/30 14:35:14;;;;;;;6.88;3.90;;;19.20;99.90;;;;;;4891091;29;20255;-96
2021/08/30 14:37:44;;;;;;;5.50;4.10;;;19.10;99.90;;;;;;4877365;29;20279;-96
2021/08/30 14:40:28;;;;;;;5.05;3.80;;;19.10;99.90;;;;;;4898830;29;20184;-96
2021/08/30 14:43:05;;;;;;;5.78;4.32;;;19.10;99.90;;;;;;4896224;29;20195;-96
2021/08/30 14:45:39;;;;;;;6.38;4.20;;;19.10;99.90;;;;;;4897786;29;20183;-96
2021/08/30 14:48:11;;;;;;;5.22;4.40;;;19.00;99.90;;;;;;4924547;23;20248;-96
2021/08/30 14:50:56;;;;;;;4.78;4.13;;;18.90;99.90;;;;;;5225866;23;20742;-96
2021/08/30 14:53:41;;;;;;;6.10;4.72;;;18.60;99.90;;;;;;4884057;29;20203;-96
2021/08/30 14:56:12;;;;;;;5.45;4.78;;;18.40;99.90;;;;;;4898760;29;20198;-96
2021/08/30 14:58:45;;;;;;;6.43;4.82;;;18.30;99.90;;;;;;4915142;29;20225;-96
2021/08/30 15:01:18;;;;;;;5.35;4.47;;;18.30;99.90;;;;;;4898766;29;20234;-96
2021/08/30 15:03:47;;;;;;;5.93;4.90;;;18.30;99.90;;;;;;4897170;29;20195;-95
2021/08/30 15:06:17;;;;;;;6.25;5.05;;;18.30;99.90;;;;;;4900018;29;20194;-96
2021/08/30 15:09:02;;;;;;;7.68;5.18;;;18.20;99.90;;;;;;4899208;29;20203;-96
2021/08/30 15:11:30;;;;;;;7.07;5.28;;;18.10;99.90;;;;;;4897042;29;20231;-96
2021/08/30 15:14:00;;;;;;;7.97;5.05;;;18.10;99.90;;;;;;4896525;29;20193;-96
2021/08/30 15:16:31;;;;;;;9.43;4.65;;;18.00;99.90;;;;;;4895099;29;20191;-96
2021/08/30 15:19:00;;;;;;;6.50;5.60;;;17.90;99.90;;;;;;4897220;29;20218;-96
2021/08/30 15:21:31;;;;;;;8.48;4.45;;;17.80;99.90;;;;;;4895213;29;20224;-96
2021/08/30 15:23:59;;;;;;;5.80;4.35;;;17.90;99.90;;;;;;4895232;29;20214;-96
2021/08/30 15:26:37;;;;;;;8.75;4.95;;;17.80;99.90;;;;;;4894062;29;20166;-96
2021/08/30 15:29:42;;;;;;;6.07;4.85;;;17.80;99.90;;;;;;4897957;29;20179;-96
2021/08/30 15:32:13;;;;;;;7.35;4.72;;;17.70;99.90;;;;;;4899913;29;20304;-96
2021/08/30 15:34:46;;;;;;;7.38;4.90;;;17.70;99.90;;;;;;4898663;29;20190;-96
2021/08/30 15:37:19;;;;;;;7.30;5.05;;;17.80;99.90;;;;;;4900067;29;20187;-96
2021/08/30 15:40:04;;;;;;;6.90;4.53;;;17.80;99.90;;;;;;4900282;29;20230;-96
2021/08/30 15:42:44;;;;;;;6.55;4.70;;;17.90;99.90;;;;;;4900122;29;20207;-96
2021/08/30 15:45:36;;;;;;;5.35;4.30;;;17.90;99.90;;;;;;4899242;29;20184;-96
2021/08/30 15:48:13;;;;;;;5.63;4.10;;;18.10;99.90;;;;;;4915498;29;20182;-96
2021/08/30 15:50:47;;;;;;;6.20;4.40;;;18.20;99.90;;;;;;4899791;29;20215;-96
2021/08/30 15:53:25;;;;;;;6.32;4.30;;;18.30;99.90;;;;;;4877724;29;20200;-95
2021/08/30 15:55:57;;;;;;;5.50;4.28;;;18.40;99.90;;;;;;4861719;29;20199;-96
2021/08/30 16:09:22;;;;;;;;;;;;;;;;;;;;;
2021/08/30 16:12:09;;;;;;;14.45;4.78;;;18.40;99.90;;;;;;6376125;22;20187;-96
2021/08/30 16:14:38;;;;;;;8.00;4.25;;;18.30;99.90;;;;;;6339010;22;20174;-96
2021/08/30 16:17:25;;;;;;;9.10;4.57;;;18.20;99.90;;;;;;6340124;22;20174;-96
2021/08/30 16:20:30;;;;;;;7.38;4.63;;;18.10;99.90;;;;;;6343655;22;20151;-96
2021/08/30 16:23:23;;;;;;;4.82;4.32;;;18.10;99.90;;;;;;6339239;22;20150;-96
2021/08/30 16:26:07;;;;;;;6.82;4.63;;;18.00;99.90;;;;;;6335838;22;20596;-96
2021/08/30 16:28:34;;;;;;;6.82;4.72;;;18.00;99.90;;;;;;6338043;22;20150;-96
2021/08/30 16:31:33;;;;;;;6.55;4.40;;;18.00;99.90;;;;;;6340835;22;20177;-96
2021/08/30 16:34:29;;;;;;;8.13;4.53;;;17.90;99.90;;;;;;6305599;22;20161;-96
2021/08/30 16:37:07;;;;;;;5.85;4.30;;;17.80;99.90;;;;;;6337336;22;20178;-96
2021/08/30 16:40:15;;;;;;;5.15;4.65;;;17.80;99.90;;;;;;6367235;22;20150;-96
2021/08/30 16:42:51;;;;;;;6.38;4.40;;;17.80;99.90;;;;;;6340905;22;20162;-96
2021/08/30 16:45:24;;;;;;;5.60;4.55;;;17.70;99.90;;;;;;6339968;22;20143;-96
2021/08/30 16:48:16;;;;;;;7.78;4.72;;;17.60;99.90;;;;;;6365994;22;20151;-96
2021/08/30 16:50:44;;;;;;;5.38;4.65;;;17.70;99.90;;;;;;6338093;22;20174;-96
2021/08/30 16:53:11;;;;;;;9.02;4.53;;;17.60;99.90;;;;;;6337168;22;20184;-96
2021/08/30 16:55:58;;;;;;;9.93;5.03;;;17.60;99.90;;;;;;6337830;22;20154;-96
2021/08/30 16:58:27;;;;;;;7.40;5.22;;;17.50;99.90;;;;;;6313398;22;20204;-96